createdAt,value
2023-05-19T00:01:48.992Z,14.10
2023-05-19T00:04:17.781Z,13.90
2023-05-19T00:06:50.971Z,13.90
2023-05-19T00:09:20.877Z,13.90
2023-05-19T00:11:49.155Z,14.10
2023-05-19T00:14:17.498Z,14.00
2023-05-19T00:16:45.949Z,13.90
2023-05-19T00:19:13.922Z,14.00
2023-05-19T00:21:41.734Z,13.70
2023-05-19T00:24:09.590Z,14.00
2023-05-19T00:26:38.715Z,14.00
2023-05-19T00:29:06.710Z,13.70
2023-05-19T00:31:34.965Z,13.40
2023-05-19T00:34:03.117Z,13.80
2023-05-19T00:36:30.973Z,13.70
2023-05-19T00:38:58.750Z,13.70
2023-05-19T00:41:27.098Z,13.80
2023-05-19T00:43:56.634Z,13.60
2023-05-19T00:46:24.702Z,13.90
2023-05-19T00:48:52.988Z,13.60
2023-05-19T00:51:21.170Z,13.60
2023-05-19T00:53:52.007Z,13.70
2023-05-19T00:56:21.669Z,13.40
2023-05-19T00:58:52.136Z,13.50
2023-05-19T01:01:22.327Z,13.40
2023-05-19T01:03:51.400Z,13.50
2023-05-19T01:06:20.771Z,13.60
2023-05-19T01:08:48.603Z,13.70
2023-05-19T01:11:16.417Z,13.30
2023-05-19T01:13:44.981Z,13.50
2023-05-19T01:16:18.751Z,13.40
2023-05-19T01:18:56.772Z,13.40
2023-05-19T01:21:45.227Z,13.40
2023-05-19T01:24:25.307Z,13.50
2023-05-19T01:27:11.704Z,13.30
2023-05-19T01:29:42.622Z,13.30
2023-05-19T01:32:13.520Z,13.30
2023-05-19T01:34:45.099Z,13.20
2023-05-19T01:37:15.895Z,13.30
2023-05-19T01:39:44.994Z,13.10
2023-05-19T01:42:13.654Z,13.20
2023-05-19T01:44:42.054Z,13.20
2023-05-19T01:47:11.959Z,13.10
2023-05-19T01:49:39.728Z,13.30
2023-05-19T01:52:07.648Z,13.40
2023-05-19T01:54:35.476Z,13.20
2023-05-19T01:57:11.438Z,13.20
2023-05-19T01:59:43.590Z,13.10
2023-05-19T02:02:27.260Z,13.20
2023-05-19T02:05:00.726Z,13.20
2023-05-19T02:07:35.587Z,12.90
2023-05-19T02:10:07.399Z,13.20
2023-05-19T02:12:37.709Z,13.00
2023-05-19T02:15:08.136Z,13.20
2023-05-19T02:17:42.120Z,13.20
2023-05-19T02:20:11.690Z,13.10
2023-05-19T02:22:39.576Z,13.30
2023-05-19T02:25:08.437Z,13.00
2023-05-19T02:27:37.249Z,13.20
2023-05-19T02:30:05.281Z,13.00
2023-05-19T02:32:33.204Z,13.10
2023-05-19T02:35:02.494Z,13.10
2023-05-19T02:37:30.976Z,12.90
2023-05-19T02:39:59.182Z,13.10
2023-05-19T02:42:26.995Z,13.20
2023-05-19T02:44:56.525Z,12.90
2023-05-19T02:47:24.386Z,12.70
2023-05-19T02:49:52.197Z,13.10
2023-05-19T02:52:21.301Z,13.10
2023-05-19T02:54:49.030Z,12.90
2023-05-19T02:57:16.809Z,13.00
2023-05-19T02:59:45.018Z,13.00
2023-05-19T03:02:12.875Z,12.90
2023-05-19T03:04:43.034Z,12.80
2023-05-19T03:07:11.130Z,12.50
2023-05-19T03:09:40.656Z,12.60
2023-05-19T03:12:08.756Z,12.50
2023-05-19T03:14:38.603Z,12.80
2023-05-19T03:17:08.487Z,12.60
2023-05-19T03:19:36.458Z,12.60
2023-05-19T03:22:04.898Z,12.40
2023-05-19T03:24:32.736Z,12.60
2023-05-19T03:27:02.457Z,12.70
2023-05-19T03:29:30.221Z,12.70
2023-05-19T03:31:58.005Z,12.70
2023-05-19T03:34:26.118Z,12.70
2023-05-19T03:36:53.886Z,12.60
2023-05-19T03:39:21.672Z,12.50
2023-05-19T03:41:49.778Z,12.70
2023-05-19T03:44:19.289Z,12.80
2023-05-19T03:46:47.037Z,12.60
2023-05-19T03:49:15.005Z,12.80
2023-05-19T03:51:43.038Z,12.50
2023-05-19T03:54:10.862Z,12.80
2023-05-19T03:56:41.041Z,12.70
2023-05-19T03:59:10.438Z,12.50
2023-05-19T04:01:39.517Z,12.70
2023-05-19T04:04:07.412Z,12.80
2023-05-19T04:06:36.183Z,12.70
2023-05-19T04:09:05.383Z,12.60
2023-05-19T04:11:33.183Z,12.70
2023-05-19T04:14:00.979Z,12.70
2023-05-19T04:16:29.027Z,12.70
2023-05-19T04:18:58.317Z,12.80
2023-05-19T04:21:26.124Z,13.10
2023-05-19T04:23:53.947Z,12.80
2023-05-19T04:26:22.538Z,13.00
2023-05-19T04:28:50.436Z,12.90
2023-05-19T04:31:18.273Z,12.80
2023-05-19T04:33:46.019Z,12.90
2023-05-19T04:36:17.413Z,13.30
2023-05-19T04:38:46.781Z,13.10
2023-05-19T04:41:16.492Z,13.00
2023-05-19T04:43:44.720Z,13.40
2023-05-19T04:46:13.882Z,13.30
2023-05-19T04:48:41.964Z,13.10
2023-05-19T04:51:09.737Z,13.30
2023-05-19T04:53:40.096Z,13.40
2023-05-19T04:56:08.228Z,13.30
2023-05-19T04:58:36.053Z,13.10
2023-05-19T05:01:04.245Z,13.80
2023-05-19T05:03:34.382Z,13.50
2023-05-19T05:06:02.486Z,13.70
2023-05-19T05:08:30.508Z,13.80
2023-05-19T05:11:00.311Z,13.90
2023-05-19T05:13:28.737Z,14.00
2023-05-19T05:15:57.035Z,14.00
2023-05-19T05:18:25.392Z,13.80
2023-05-19T05:20:54.682Z,14.00
2023-05-19T05:23:25.190Z,13.80
2023-05-19T05:25:53.413Z,13.80
2023-05-19T05:28:22.672Z,13.80
2023-05-19T05:30:50.892Z,14.20
2023-05-19T05:33:19.381Z,14.20
2023-05-19T05:35:47.569Z,14.40
2023-05-19T05:38:15.460Z,14.60
2023-05-19T05:40:43.227Z,14.50
2023-05-19T05:43:11.126Z,14.60
2023-05-19T05:45:40.238Z,14.70
2023-05-19T05:48:08.886Z,14.70
2023-05-19T05:50:37.339Z,14.90
2023-05-19T05:53:07.478Z,14.60
2023-05-19T05:55:35.979Z,14.90
2023-05-19T05:58:03.814Z,15.10
2023-05-19T06:00:32.129Z,15.10
2023-05-19T06:03:03.094Z,15.60
2023-05-19T06:05:31.215Z,15.50
2023-05-19T06:07:59.023Z,15.60
2023-05-19T06:10:26.880Z,15.80
2023-05-19T06:12:54.718Z,15.90
2023-05-19T06:15:22.778Z,16.60
2023-05-19T06:17:50.797Z,16.60
2023-05-19T06:20:20.502Z,16.70
2023-05-19T06:22:48.367Z,16.60
2023-05-19T06:25:16.761Z,16.60
2023-05-19T06:27:44.502Z,17.40
2023-05-19T06:30:13.262Z,17.50
2023-05-19T06:32:41.150Z,17.80
2023-05-19T06:35:09.499Z,18.70
2023-05-19T06:37:38.632Z,19.70
2023-05-19T06:40:08.252Z,21.30
2023-05-19T06:42:36.046Z,23.10
2023-05-19T06:45:03.872Z,24.30
2023-05-19T06:47:31.668Z,25.20
2023-05-19T06:49:59.401Z,25.50
2023-05-19T06:52:27.191Z,26.00
2023-05-19T06:54:56.360Z,26.30
2023-05-19T06:57:24.533Z,26.10
2023-05-19T06:59:52.327Z,25.80
2023-05-19T07:02:20.171Z,26.30
2023-05-19T07:04:48.303Z,26.60
2023-05-19T07:07:16.168Z,27.10
2023-05-19T07:09:44.013Z,27.20
2023-05-19T07:12:13.103Z,27.50
2023-05-19T07:14:41.145Z,27.60
2023-05-19T07:17:09.229Z,28.00
2023-05-19T07:19:36.986Z,28.00
2023-05-19T07:22:05.066Z,27.80
2023-05-19T07:24:32.803Z,27.70
2023-05-19T07:27:00.648Z,28.00
2023-05-19T07:29:29.742Z,28.00
2023-05-19T07:31:58.103Z,28.10
2023-05-19T07:34:26.046Z,28.70
2023-05-19T07:36:53.868Z,28.70
2023-05-19T07:39:22.004Z,29.50
2023-05-19T07:41:54.095Z,29.30
2023-05-19T07:44:21.902Z,29.60
2023-05-19T07:46:51.064Z,30.20
2023-05-19T07:49:18.829Z,30.30
2023-05-19T07:51:46.707Z,30.30
2023-05-19T07:54:14.487Z,30.10
2023-05-19T07:56:42.399Z,30.10
2023-05-19T07:59:10.165Z,29.60
2023-05-19T08:01:39.414Z,28.60
2023-05-19T08:04:12.592Z,28.20
2023-05-19T08:06:43.326Z,28.70
2023-05-19T08:09:13.979Z,28.70
2023-05-19T08:11:43.667Z,28.40
2023-05-19T08:14:13.379Z,28.20
2023-05-19T08:16:43.457Z,28.00
2023-05-19T08:19:14.455Z,28.20
2023-05-19T08:21:45.196Z,28.20
2023-05-19T08:24:15.177Z,28.10
2023-05-19T08:26:46.543Z,28.00
2023-05-19T08:29:16.366Z,28.10
2023-05-19T08:31:46.245Z,28.60
2023-05-19T08:34:17.608Z,28.30
2023-05-19T08:36:48.167Z,28.70
2023-05-19T08:39:24.671Z,29.50
2023-05-19T08:41:54.813Z,29.80
2023-05-19T08:44:25.704Z,30.00
2023-05-19T08:46:57.426Z,30.30
2023-05-19T08:49:30.219Z,30.70
2023-05-19T08:52:08.184Z,30.50
2023-05-19T08:54:44.349Z,30.10
2023-05-19T08:57:13.324Z,30.00
2023-05-19T08:59:44.076Z,30.00
2023-05-19T09:02:14.000Z,29.80
2023-05-19T09:04:45.960Z,30.10
2023-05-19T09:07:15.303Z,30.30
2023-05-19T09:09:44.008Z,30.30
2023-05-19T09:12:12.144Z,30.10
2023-05-19T09:14:40.385Z,30.30
2023-05-19T09:17:08.329Z,30.70
2023-05-19T09:19:36.352Z,30.50
2023-05-19T09:22:06.264Z,30.60
2023-05-19T09:24:35.917Z,30.80
2023-05-19T09:27:03.818Z,30.20
2023-05-19T09:29:31.565Z,29.30
2023-05-19T09:32:00.898Z,28.20
2023-05-19T09:34:28.939Z,28.20
2023-05-19T09:36:57.966Z,28.40
2023-05-19T09:39:28.724Z,28.80
2023-05-19T09:41:58.474Z,29.30
2023-05-19T09:44:29.230Z,29.30
2023-05-19T09:46:58.224Z,29.30
2023-05-19T09:49:29.386Z,29.00
2023-05-19T09:51:57.615Z,29.30
2023-05-19T09:54:28.577Z,30.30
2023-05-19T09:57:03.542Z,30.50
2023-05-19T09:59:33.846Z,29.90
2023-05-19T10:02:03.216Z,29.80
2023-05-19T10:04:31.831Z,30.40
2023-05-19T10:07:00.454Z,31.30
2023-05-19T10:09:30.427Z,30.50
2023-05-19T10:11:59.439Z,30.40
2023-05-19T10:14:29.005Z,30.70
2023-05-19T10:16:59.543Z,30.40
2023-05-19T10:19:29.298Z,30.40
2023-05-19T10:21:57.622Z,30.40
2023-05-19T10:24:25.444Z,30.90
2023-05-19T10:26:59.441Z,30.50
2023-05-19T10:29:31.223Z,30.20
2023-05-19T10:32:05.825Z,29.80
2023-05-19T10:35:01.901Z,30.10
2023-05-19T10:37:41.753Z,29.80
2023-05-19T10:40:13.503Z,29.70
2023-05-19T10:42:52.702Z,28.90
2023-05-19T10:45:23.489Z,28.10
2023-05-19T10:47:52.110Z,27.50
2023-05-19T10:50:21.553Z,27.60
2023-05-19T10:52:55.488Z,27.90
2023-05-19T10:55:48.468Z,27.80
2023-05-19T10:58:38.258Z,27.80
2023-05-19T11:01:10.017Z,27.70
2023-05-19T11:03:46.968Z,27.00
2023-05-19T11:06:22.419Z,26.60
2023-05-19T11:08:54.911Z,26.70
2023-05-19T11:11:23.609Z,27.20
2023-05-19T11:13:56.832Z,27.10
2023-05-19T11:16:32.609Z,26.50
2023-05-19T11:19:00.902Z,26.40
2023-05-19T11:21:43.227Z,26.30
2023-05-19T11:24:11.169Z,26.10
2023-05-19T11:26:43.478Z,26.00
2023-05-19T11:29:13.433Z,25.90
2023-05-19T11:31:44.405Z,25.80
2023-05-19T11:34:13.862Z,25.50
2023-05-19T11:36:43.752Z,25.50
2023-05-19T11:39:12.376Z,25.40
2023-05-19T11:41:40.623Z,25.00
2023-05-19T11:44:12.745Z,24.90
2023-05-19T11:46:40.669Z,24.80
2023-05-19T11:49:08.714Z,24.60
2023-05-19T11:51:38.306Z,24.20
2023-05-19T11:54:06.389Z,23.70
2023-05-19T11:56:36.696Z,23.60
2023-05-19T11:59:04.554Z,23.70
2023-05-19T12:01:34.655Z,23.70
2023-05-19T12:04:02.908Z,23.70
2023-05-19T12:06:31.075Z,23.50
2023-05-19T12:08:59.947Z,23.70
2023-05-19T12:11:29.393Z,23.90
2023-05-19T12:14:00.187Z,23.80
2023-05-19T12:16:35.447Z,23.40
2023-05-19T12:19:06.415Z,23.30
2023-05-19T12:21:34.667Z,23.50
2023-05-19T12:24:02.980Z,23.30
2023-05-19T12:26:30.978Z,23.00
2023-05-19T12:28:59.851Z,22.60
2023-05-19T12:31:27.768Z,22.40
2023-05-19T12:33:57.235Z,22.40
2023-05-19T12:36:26.971Z,22.10
2023-05-19T12:38:55.499Z,21.90
2023-05-19T12:41:25.356Z,21.80
2023-05-19T12:43:53.589Z,21.80
2023-05-19T12:46:22.495Z,22.00
2023-05-19T12:48:51.562Z,22.00
2023-05-19T12:51:21.244Z,21.90
2023-05-19T12:53:51.427Z,21.90
2023-05-19T12:56:19.345Z,22.20
2023-05-19T12:58:47.119Z,22.60
2023-05-19T13:01:20.356Z,23.00
2023-05-19T13:03:48.592Z,23.30
2023-05-19T13:06:16.717Z,23.60
2023-05-19T13:08:48.198Z,23.50
2023-05-19T13:11:15.983Z,23.60
2023-05-19T13:13:43.848Z,23.60
2023-05-19T13:16:11.696Z,23.50
2023-05-19T13:18:39.751Z,23.20
2023-05-19T13:21:07.554Z,22.70
2023-05-19T13:23:35.770Z,22.20
2023-05-19T13:26:05.366Z,21.90
2023-05-19T13:28:33.831Z,21.70
2023-05-19T13:31:01.663Z,21.60
2023-05-19T13:33:31.445Z,21.50
2023-05-19T13:35:59.636Z,21.30
2023-05-19T13:38:27.392Z,21.20
2023-05-19T13:40:55.158Z,20.90
2023-05-19T13:43:24.293Z,21.20
2023-05-19T13:45:52.345Z,20.90
2023-05-19T13:48:20.244Z,20.70
2023-05-19T13:50:48.042Z,20.60
2023-05-19T13:53:15.859Z,20.40
2023-05-19T13:55:43.645Z,20.10
2023-05-19T13:58:12.446Z,20.40
2023-05-19T14:00:42.259Z,20.10
2023-05-19T14:03:10.165Z,20.20
2023-05-19T14:05:38.084Z,20.20
2023-05-19T14:08:06.721Z,20.30
2023-05-19T14:10:34.793Z,20.30
2023-05-19T14:13:29.733Z,20.30
2023-05-19T14:15:53.245Z,20.50
2023-05-19T14:18:21.390Z,20.80
2023-05-19T14:20:49.270Z,20.80
2023-05-19T14:23:17.099Z,21.00
2023-05-19T14:25:44.976Z,21.00
2023-05-19T14:28:13.038Z,20.50
2023-05-19T14:30:41.440Z,20.80
2023-05-19T14:33:11.125Z,20.90
2023-05-19T14:35:39.193Z,21.00
2023-05-19T14:38:07.392Z,21.10
2023-05-19T14:40:37.140Z,21.00
2023-05-19T14:43:05.090Z,21.00
2023-05-19T14:45:32.902Z,21.20
2023-05-19T14:48:00.964Z,21.20
2023-05-19T14:50:30.198Z,21.00
2023-05-19T14:52:58.011Z,21.10
2023-05-19T14:55:25.798Z,21.20
2023-05-19T14:57:53.614Z,21.30
2023-05-19T15:00:21.535Z,21.40
2023-05-19T15:02:50.028Z,21.30
2023-05-19T15:05:18.019Z,21.50
2023-05-19T15:07:47.332Z,21.60
2023-05-19T15:10:16.385Z,21.50
2023-05-19T15:12:44.495Z,21.40
2023-05-19T15:15:12.891Z,21.50
2023-05-19T15:17:41.124Z,21.40
2023-05-19T15:20:09.708Z,21.90
2023-05-19T15:22:37.463Z,21.90
2023-05-19T15:25:07.687Z,22.00
2023-05-19T15:27:36.218Z,22.20
2023-05-19T15:30:04.224Z,22.30
2023-05-19T15:32:32.062Z,22.10
2023-05-19T15:34:59.924Z,22.00
2023-05-19T15:37:27.779Z,22.10
2023-05-19T15:39:56.917Z,22.20
2023-05-19T15:42:26.113Z,22.00
2023-05-19T15:44:53.887Z,21.70
2023-05-19T15:47:21.616Z,21.60
2023-05-19T15:49:49.380Z,21.50
2023-05-19T15:52:17.159Z,21.20
2023-05-19T15:54:45.235Z,21.10
2023-05-19T15:57:13.444Z,21.10
2023-05-19T15:59:42.691Z,21.00
2023-05-19T16:02:10.530Z,20.60
2023-05-19T16:04:38.451Z,20.50
2023-05-19T16:07:06.668Z,20.60
2023-05-19T16:09:34.582Z,20.50
2023-05-19T16:12:02.404Z,20.00
2023-05-19T16:14:33.235Z,20.10
2023-05-19T16:17:02.671Z,20.10
2023-05-19T16:19:30.621Z,20.10
2023-05-19T16:21:58.571Z,20.10
2023-05-19T16:24:26.826Z,19.80
2023-05-19T16:26:54.574Z,20.00
2023-05-19T16:29:22.500Z,19.90
2023-05-19T16:31:50.401Z,19.70
2023-05-19T16:34:19.574Z,19.60
2023-05-19T16:36:47.318Z,20.10
2023-05-19T16:39:15.226Z,20.10
2023-05-19T16:41:42.932Z,19.90
2023-05-19T16:44:11.650Z,20.10
2023-05-19T16:46:39.494Z,20.20
2023-05-19T16:49:07.438Z,20.10
2023-05-19T16:51:36.595Z,20.20
2023-05-19T16:54:04.612Z,20.00
2023-05-19T16:56:32.421Z,20.30
2023-05-19T16:59:00.281Z,20.40
2023-05-19T17:01:28.084Z,20.40
2023-05-19T17:03:55.971Z,20.40
2023-05-19T17:06:23.795Z,20.00
2023-05-19T17:08:52.901Z,20.50
2023-05-19T17:11:21.365Z,20.60
2023-05-19T17:13:49.254Z,20.60
2023-05-19T17:16:17.153Z,20.50
2023-05-19T17:18:45.030Z,20.70
2023-05-19T17:21:13.366Z,20.60
2023-05-19T17:23:41.516Z,20.40
2023-05-19T17:26:10.697Z,20.20
2023-05-19T17:28:38.468Z,20.30
2023-05-19T17:31:11.773Z,20.30
2023-05-19T17:33:39.645Z,19.70
2023-05-19T17:36:09.374Z,20.10
2023-05-19T17:38:40.103Z,19.80
2023-05-19T17:41:10.665Z,19.90
2023-05-19T17:43:40.649Z,20.00
2023-05-19T17:46:09.262Z,19.90
2023-05-19T17:48:37.078Z,20.10
2023-05-19T17:51:06.975Z,20.00
2023-05-19T17:53:35.475Z,19.60
2023-05-19T17:56:05.810Z,19.90
2023-05-19T17:58:34.017Z,19.70
2023-05-19T18:01:03.522Z,19.80
2023-05-19T18:03:32.025Z,19.70
2023-05-19T18:06:00.233Z,19.80
2023-05-19T18:08:28.850Z,19.70
2023-05-19T18:10:58.019Z,19.30
2023-05-19T18:13:26.039Z,19.40
2023-05-19T18:15:53.915Z,19.40
2023-05-19T18:18:23.216Z,19.50
2023-05-19T18:20:51.166Z,19.60
2023-05-19T18:23:20.481Z,19.60
2023-05-19T18:25:51.634Z,19.30
2023-05-19T18:28:19.806Z,19.50
2023-05-19T18:30:47.893Z,19.50
2023-05-19T18:33:16.246Z,19.30
2023-05-19T18:35:47.046Z,18.90
2023-05-19T18:38:14.772Z,19.50
2023-05-19T18:40:44.239Z,18.90
2023-05-19T18:43:12.083Z,19.30
2023-05-19T18:45:40.326Z,19.00
2023-05-19T18:48:08.634Z,18.80
2023-05-19T18:50:36.855Z,19.00
2023-05-19T18:53:06.367Z,19.00
2023-05-19T18:55:35.445Z,18.80
2023-05-19T18:58:04.313Z,18.80
2023-05-19T19:00:33.728Z,18.90
2023-05-19T19:03:01.974Z,18.80
2023-05-19T19:05:30.176Z,18.80
2023-05-19T19:07:58.093Z,18.70
2023-05-19T19:10:28.216Z,18.20
2023-05-19T19:12:57.809Z,18.30
2023-05-19T19:15:25.956Z,18.70
2023-05-19T19:17:53.901Z,18.40
2023-05-19T19:20:21.682Z,18.80
2023-05-19T19:22:49.645Z,18.50
2023-05-19T19:25:17.588Z,18.70
2023-05-19T19:27:46.817Z,18.60
2023-05-19T19:30:14.793Z,18.40
2023-05-19T19:32:42.578Z,18.30
2023-05-19T19:35:11.074Z,18.50
2023-05-19T19:37:38.949Z,18.30
2023-05-19T19:40:07.958Z,18.40
2023-05-19T19:42:35.961Z,18.40
2023-05-19T19:45:05.809Z,18.30
2023-05-19T19:47:33.822Z,18.30
2023-05-19T19:50:05.418Z,18.20
2023-05-19T19:52:33.509Z,18.10
2023-05-19T19:55:01.313Z,18.10
2023-05-19T19:57:31.567Z,17.80
2023-05-19T20:00:07.373Z,18.10
2023-05-19T20:02:40.942Z,18.00
2023-05-19T20:05:15.099Z,17.50
2023-05-19T20:07:42.873Z,18.10
2023-05-19T20:10:11.434Z,17.50
2023-05-19T20:12:39.275Z,17.60
2023-05-19T20:15:08.604Z,17.90
2023-05-19T20:17:37.894Z,18.00
2023-05-19T20:20:09.815Z,17.70
2023-05-19T20:22:37.917Z,17.90
2023-05-19T20:25:06.860Z,17.50
2023-05-19T20:27:35.013Z,17.80
2023-05-19T20:30:02.813Z,17.70
2023-05-19T20:32:30.800Z,17.70
2023-05-19T20:35:00.270Z,17.80
2023-05-19T20:37:28.162Z,17.60
2023-05-19T20:39:56.028Z,17.20
2023-05-19T20:42:23.893Z,17.40
2023-05-19T20:44:51.934Z,17.40
2023-05-19T20:47:20.945Z,17.20
2023-05-19T20:49:49.175Z,17.30
2023-05-19T20:52:18.913Z,17.50
2023-05-19T20:54:46.947Z,17.30
2023-05-19T20:57:14.877Z,17.00
2023-05-19T20:59:42.702Z,17.20
2023-05-19T21:02:11.627Z,17.30
2023-05-19T21:04:39.528Z,16.60
2023-05-19T21:07:07.442Z,16.80
2023-05-19T21:09:36.609Z,17.10
2023-05-19T21:12:06.093Z,16.70
2023-05-19T21:14:33.861Z,17.00
2023-05-19T21:17:01.798Z,17.10
2023-05-19T21:19:29.793Z,17.00
2023-05-19T21:21:57.734Z,16.50
2023-05-19T21:24:25.562Z,16.40
2023-05-19T21:26:54.855Z,17.00
2023-05-19T21:29:22.689Z,17.00
2023-05-19T21:31:52.482Z,16.70
2023-05-19T21:34:20.320Z,16.70
2023-05-19T21:36:49.890Z,16.20
2023-05-19T21:39:17.876Z,16.40
2023-05-19T21:41:45.759Z,16.60
2023-05-19T21:44:15.042Z,16.00
2023-05-19T21:46:42.984Z,16.20
2023-05-19T21:49:10.846Z,16.30
2023-05-19T21:51:38.780Z,15.80
2023-05-19T21:54:06.829Z,16.40
2023-05-19T21:56:34.673Z,15.90
2023-05-19T21:59:02.513Z,16.40
2023-05-19T22:01:32.239Z,16.50
2023-05-19T22:04:00.294Z,16.30
2023-05-19T22:06:28.185Z,15.90
2023-05-19T22:08:56.061Z,16.40
2023-05-19T22:11:23.914Z,16.50
2023-05-19T22:13:54.552Z,16.40
2023-05-19T22:16:22.717Z,16.60
2023-05-19T22:18:52.002Z,16.40
2023-05-19T22:21:20.008Z,16.20
2023-05-19T22:23:47.858Z,16.50
2023-05-19T22:26:16.013Z,15.80
2023-05-19T22:28:43.837Z,16.10
2023-05-19T22:31:11.739Z,16.00
2023-05-19T22:33:39.507Z,16.50
2023-05-19T22:36:10.894Z,16.40
2023-05-19T22:38:38.722Z,15.90
2023-05-19T22:41:06.521Z,15.70
2023-05-19T22:43:34.279Z,16.00
2023-05-19T22:46:02.189Z,16.10
2023-05-19T22:48:30.562Z,16.30
2023-05-19T22:50:58.425Z,16.30
2023-05-19T22:53:27.554Z,16.20
2023-05-19T22:55:55.439Z,16.50
2023-05-19T22:58:23.259Z,16.30
2023-05-19T23:00:51.090Z,16.00
2023-05-19T23:03:19.311Z,16.20
2023-05-19T23:05:47.132Z,15.90
2023-05-19T23:08:14.961Z,16.10
2023-05-19T23:10:44.132Z,15.50
2023-05-19T23:13:11.986Z,15.50
2023-05-19T23:15:39.807Z,15.90
2023-05-19T23:18:08.589Z,15.90
2023-05-19T23:20:36.582Z,15.40
2023-05-19T23:23:04.443Z,15.70
2023-05-19T23:25:32.493Z,15.50
2023-05-19T23:28:01.794Z,15.50
2023-05-19T23:30:30.302Z,15.90
2023-05-19T23:32:58.132Z,15.40
2023-05-19T23:35:26.004Z,15.90
2023-05-19T23:37:54.468Z,15.80
2023-05-19T23:40:22.379Z,15.60
2023-05-19T23:42:50.127Z,15.90
2023-05-19T23:45:19.541Z,15.60
2023-05-19T23:47:47.385Z,16.00
2023-05-19T23:50:15.563Z,15.60
2023-05-19T23:52:43.380Z,15.60
2023-05-19T23:55:12.583Z,15.70
2023-05-19T23:57:40.465Z,16.10
